Weather at Crossmaglen Airstrip

Public forecast

Using degrees Celsius for public forecast. Weather courtesy of forecast.io.

Closest aviation weather report (METAR) to Crossmaglen Airstrip

Closest report is Belfast International Airport, 37.7 nm (69.8 km) NNE. Retrieved 2022/01/27 08:50 UTC (18 minutes ago):

EGAA 270850Z 26007KT 9999 FEW024 05/04 Q1026

Closest aviation forecast (TAF) to Crossmaglen Airstrip

Closest forecast is Belfast International Airport, 37.7 nm (69.8 km) NNE. Retrieved 2022/01/27 06:00 UTC (3 hours ago):

TAF EGAA 270459Z 2706/2806 28011KT 9999 FEW018 SCT030 BECMG 2720/2723 22007KT